sensor_id;sensor_type;location;lat;lon;timestamp;P1;durP1;ratioP1;P2;durP2;ratioP2
29370;SDS011;16357;52.188;7.838;2023-01-29T00:01:17;35.35;;;21.45;;
29370;SDS011;16357;52.188;7.838;2023-01-29T00:03:43;39.05;;;22.50;;
29370;SDS011;16357;52.188;7.838;2023-01-29T00:06:09;34.63;;;21.33;;
29370;SDS011;16357;52.188;7.838;2023-01-29T00:08:37;37.53;;;21.02;;
29370;SDS011;16357;52.188;7.838;2023-01-29T00:11:04;36.80;;;22.05;;
29370;SDS011;16357;52.188;7.838;2023-01-29T00:13:33;35.25;;;22.17;;
29370;SDS011;16357;52.188;7.838;2023-01-29T00:16:00;37.22;;;22.98;;
29370;SDS011;16357;52.188;7.838;2023-01-29T00:18:27;35.25;;;21.95;;
29370;SDS011;16357;52.188;7.838;2023-01-29T00:20:54;38.00;;;22.85;;
29370;SDS011;16357;52.188;7.838;2023-01-29T00:23:21;39.28;;;23.85;;
29370;SDS011;16357;52.188;7.838;2023-01-29T00:25:48;40.67;;;23.80;;
29370;SDS011;16357;52.188;7.838;2023-01-29T00:28:14;36.92;;;21.77;;
29370;SDS011;16357;52.188;7.838;2023-01-29T00:30:41;38.47;;;23.45;;
29370;SDS011;16357;52.188;7.838;2023-01-29T00:33:07;36.35;;;22.58;;
29370;SDS011;16357;52.188;7.838;2023-01-29T00:35:34;35.03;;;21.88;;
29370;SDS011;16357;52.188;7.838;2023-01-29T00:38:00;34.08;;;21.77;;
29370;SDS011;16357;52.188;7.838;2023-01-29T00:40:26;37.63;;;22.60;;
29370;SDS011;16357;52.188;7.838;2023-01-29T00:42:53;36.78;;;22.15;;
29370;SDS011;16357;52.188;7.838;2023-01-29T00:45:38;35.80;;;22.05;;
29370;SDS011;16357;52.188;7.838;2023-01-29T00:48:04;36.22;;;21.83;;
29370;SDS011;16357;52.188;7.838;2023-01-29T00:50:31;37.88;;;22.73;;
29370;SDS011;16357;52.188;7.838;2023-01-29T00:52:57;34.90;;;21.67;;
29370;SDS011;16357;52.188;7.838;2023-01-29T00:55:24;35.00;;;21.85;;
29370;SDS011;16357;52.188;7.838;2023-01-29T00:57:50;37.10;;;22.20;;
29370;SDS011;16357;52.188;7.838;2023-01-29T01:00:17;35.63;;;21.95;;
29370;SDS011;16357;52.188;7.838;2023-01-29T01:02:44;34.25;;;21.65;;
29370;SDS011;16357;52.188;7.838;2023-01-29T01:05:29;36.63;;;22.15;;
29370;SDS011;16357;52.188;7.838;2023-01-29T01:07:55;38.03;;;22.85;;
29370;SDS011;16357;52.188;7.838;2023-01-29T01:10:31;36.55;;;22.60;;
29370;SDS011;16357;52.188;7.838;2023-01-29T01:13:02;36.78;;;22.02;;
29370;SDS011;16357;52.188;7.838;2023-01-29T01:15:31;38.08;;;22.90;;
29370;SDS011;16357;52.188;7.838;2023-01-29T01:18:00;36.25;;;21.95;;
29370;SDS011;16357;52.188;7.838;2023-01-29T01:20:28;34.90;;;20.83;;
29370;SDS011;16357;52.188;7.838;2023-01-29T01:22:56;39.58;;;22.77;;
29370;SDS011;16357;52.188;7.838;2023-01-29T01:25:23;37.55;;;22.75;;
29370;SDS011;16357;52.188;7.838;2023-01-29T01:27:52;34.05;;;20.50;;
29370;SDS011;16357;52.188;7.838;2023-01-29T01:30:19;38.05;;;22.67;;
29370;SDS011;16357;52.188;7.838;2023-01-29T01:32:46;34.63;;;20.67;;
29370;SDS011;16357;52.188;7.838;2023-01-29T01:35:12;36.17;;;22.30;;
29370;SDS011;16357;52.188;7.838;2023-01-29T01:37:40;38.80;;;22.10;;
29370;SDS011;16357;52.188;7.838;2023-01-29T01:40:11;34.03;;;21.52;;
29370;SDS011;16357;52.188;7.838;2023-01-29T01:42:46;37.35;;;23.02;;
29370;SDS011;16357;52.188;7.838;2023-01-29T01:47:50;35.92;;;21.77;;
29370;SDS011;16357;52.188;7.838;2023-01-29T01:50:34;37.15;;;22.60;;
29370;SDS011;16357;52.188;7.838;2023-01-29T01:53:08;36.60;;;21.60;;
29370;SDS011;16357;52.188;7.838;2023-01-29T01:55:41;32.72;;;19.52;;
29370;SDS011;16357;52.188;7.838;2023-01-29T01:58:21;37.88;;;22.52;;
29370;SDS011;16357;52.188;7.838;2023-01-29T02:00:51;35.70;;;21.67;;
29370;SDS011;16357;52.188;7.838;2023-01-29T02:03:18;35.13;;;22.02;;
29370;SDS011;16357;52.188;7.838;2023-01-29T02:06:06;38.35;;;21.98;;
29370;SDS011;16357;52.188;7.838;2023-01-29T02:08:57;35.63;;;20.20;;
29370;SDS011;16357;52.188;7.838;2023-01-29T02:11:47;33.03;;;20.30;;
29370;SDS011;16357;52.188;7.838;2023-01-29T02:14:13;36.05;;;21.58;;
29370;SDS011;16357;52.188;7.838;2023-01-29T02:16:39;36.53;;;21.20;;
29370;SDS011;16357;52.188;7.838;2023-01-29T02:19:09;35.03;;;21.60;;
29370;SDS011;16357;52.188;7.838;2023-01-29T02:22:05;35.60;;;21.10;;
29370;SDS011;16357;52.188;7.838;2023-01-29T02:30:25;35.95;;;21.73;;
29370;SDS011;16357;52.188;7.838;2023-01-29T02:32:59;35.67;;;21.25;;
29370;SDS011;16357;52.188;7.838;2023-01-29T02:38:44;35.47;;;21.75;;
29370;SDS011;16357;52.188;7.838;2023-01-29T02:41:23;34.65;;;20.98;;
29370;SDS011;16357;52.188;7.838;2023-01-29T02:46:47;38.38;;;22.23;;
29370;SDS011;16357;52.188;7.838;2023-01-29T02:49:39;36.17;;;21.83;;
29370;SDS011;16357;52.188;7.838;2023-01-29T02:52:18;34.38;;;21.27;;
29370;SDS011;16357;52.188;7.838;2023-01-29T02:54:52;36.08;;;21.73;;
29370;SDS011;16357;52.188;7.838;2023-01-29T02:57:31;37.28;;;21.17;;
29370;SDS011;16357;52.188;7.838;2023-01-29T03:00:09;34.40;;;22.45;;
29370;SDS011;16357;52.188;7.838;2023-01-29T03:03:02;37.83;;;22.17;;
29370;SDS011;16357;52.188;7.838;2023-01-29T03:05:36;35.35;;;21.80;;
29370;SDS011;16357;52.188;7.838;2023-01-29T03:08:11;33.42;;;20.55;;
29370;SDS011;16357;52.188;7.838;2023-01-29T03:10:46;35.42;;;21.38;;
29370;SDS011;16357;52.188;7.838;2023-01-29T03:13:26;37.42;;;22.25;;
29370;SDS011;16357;52.188;7.838;2023-01-29T03:16:05;36.00;;;21.40;;
29370;SDS011;16357;52.188;7.838;2023-01-29T03:18:40;36.60;;;22.05;;
29370;SDS011;16357;52.188;7.838;2023-01-29T03:21:54;36.83;;;22.48;;
29370;SDS011;16357;52.188;7.838;2023-01-29T03:24:24;34.25;;;21.67;;
29370;SDS011;16357;52.188;7.838;2023-01-29T03:27:15;34.05;;;19.42;;
29370;SDS011;16357;52.188;7.838;2023-01-29T03:30:04;35.70;;;21.00;;
29370;SDS011;16357;52.188;7.838;2023-01-29T03:32:52;36.17;;;21.20;;
29370;SDS011;16357;52.188;7.838;2023-01-29T03:35:22;34.83;;;21.65;;
29370;SDS011;16357;52.188;7.838;2023-01-29T03:38:02;36.22;;;22.23;;
29370;SDS011;16357;52.188;7.838;2023-01-29T03:40:34;36.97;;;21.55;;
29370;SDS011;16357;52.188;7.838;2023-01-29T03:43:13;37.53;;;22.55;;
29370;SDS011;16357;52.188;7.838;2023-01-29T03:49:10;34.38;;;21.10;;
29370;SDS011;16357;52.188;7.838;2023-01-29T03:52:08;33.38;;;20.80;;
29370;SDS011;16357;52.188;7.838;2023-01-29T03:57:36;35.58;;;21.45;;
29370;SDS011;16357;52.188;7.838;2023-01-29T04:02:49;37.83;;;21.60;;
29370;SDS011;16357;52.188;7.838;2023-01-29T04:05:21;38.25;;;22.70;;
29370;SDS011;16357;52.188;7.838;2023-01-29T04:07:53;35.95;;;21.73;;
29370;SDS011;16357;52.188;7.838;2023-01-29T04:10:27;37.13;;;22.90;;
29370;SDS011;16357;52.188;7.838;2023-01-29T04:12:59;35.47;;;22.38;;
29370;SDS011;16357;52.188;7.838;2023-01-29T04:15:29;37.13;;;22.75;;
29370;SDS011;16357;52.188;7.838;2023-01-29T04:18:01;39.53;;;23.65;;
29370;SDS011;16357;52.188;7.838;2023-01-29T04:20:27;40.53;;;23.67;;
29370;SDS011;16357;52.188;7.838;2023-01-29T04:22:54;41.22;;;24.02;;
29370;SDS011;16357;52.188;7.838;2023-01-29T04:25:21;42.75;;;23.70;;
29370;SDS011;16357;52.188;7.838;2023-01-29T04:28:02;41.78;;;24.27;;
29370;SDS011;16357;52.188;7.838;2023-01-29T04:30:37;39.75;;;23.35;;
29370;SDS011;16357;52.188;7.838;2023-01-29T04:44:18;43.63;;;23.85;;
29370;SDS011;16357;52.188;7.838;2023-01-29T04:46:56;47.03;;;24.98;;
29370;SDS011;16357;52.188;7.838;2023-01-29T04:49:43;43.10;;;25.23;;
29370;SDS011;16357;52.188;7.838;2023-01-29T04:57:14;38.10;;;20.55;;
29370;SDS011;16357;52.188;7.838;2023-01-29T04:59:50;42.97;;;23.93;;
29370;SDS011;16357;52.188;7.838;2023-01-29T05:02:25;40.10;;;23.63;;
29370;SDS011;16357;52.188;7.838;2023-01-29T05:04:53;43.60;;;25.85;;
29370;SDS011;16357;52.188;7.838;2023-01-29T05:07:23;45.42;;;25.80;;
29370;SDS011;16357;52.188;7.838;2023-01-29T05:09:53;44.10;;;25.92;;
29370;SDS011;16357;52.188;7.838;2023-01-29T05:12:21;49.78;;;26.75;;
29370;SDS011;16357;52.188;7.838;2023-01-29T05:14:53;44.33;;;25.65;;
29370;SDS011;16357;52.188;7.838;2023-01-29T05:17:25;44.22;;;25.40;;
29370;SDS011;16357;52.188;7.838;2023-01-29T05:19:51;49.13;;;27.58;;
29370;SDS011;16357;52.188;7.838;2023-01-29T05:22:20;47.28;;;27.75;;
29370;SDS011;16357;52.188;7.838;2023-01-29T05:24:48;44.35;;;25.70;;
29370;SDS011;16357;52.188;7.838;2023-01-29T05:27:19;45.35;;;26.63;;
29370;SDS011;16357;52.188;7.838;2023-01-29T05:30:08;41.47;;;23.88;;
29370;SDS011;16357;52.188;7.838;2023-01-29T05:32:35;46.45;;;26.95;;
29370;SDS011;16357;52.188;7.838;2023-01-29T05:35:01;46.67;;;26.45;;
29370;SDS011;16357;52.188;7.838;2023-01-29T05:37:28;43.80;;;25.70;;
29370;SDS011;16357;52.188;7.838;2023-01-29T05:39:54;40.65;;;24.13;;
29370;SDS011;16357;52.188;7.838;2023-01-29T05:42:20;47.80;;;26.90;;
29370;SDS011;16357;52.188;7.838;2023-01-29T05:44:47;46.78;;;26.75;;
29370;SDS011;16357;52.188;7.838;2023-01-29T05:47:17;45.50;;;26.40;;
29370;SDS011;16357;52.188;7.838;2023-01-29T05:52:19;48.40;;;26.85;;
29370;SDS011;16357;52.188;7.838;2023-01-29T05:54:45;46.75;;;26.65;;
29370;SDS011;16357;52.188;7.838;2023-01-29T05:57:13;47.63;;;26.42;;
29370;SDS011;16357;52.188;7.838;2023-01-29T05:59:39;45.92;;;26.50;;
29370;SDS011;16357;52.188;7.838;2023-01-29T06:02:06;49.00;;;26.02;;
29370;SDS011;16357;52.188;7.838;2023-01-29T06:04:32;44.75;;;25.80;;
29370;SDS011;16357;52.188;7.838;2023-01-29T06:06:59;45.00;;;25.08;;
29370;SDS011;16357;52.188;7.838;2023-01-29T06:09:28;45.78;;;25.98;;
29370;SDS011;16357;52.188;7.838;2023-01-29T06:11:54;48.40;;;26.38;;
29370;SDS011;16357;52.188;7.838;2023-01-29T06:14:21;45.22;;;25.88;;
29370;SDS011;16357;52.188;7.838;2023-01-29T06:16:47;45.80;;;26.00;;
29370;SDS011;16357;52.188;7.838;2023-01-29T06:19:13;46.50;;;26.55;;
29370;SDS011;16357;52.188;7.838;2023-01-29T06:21:40;42.88;;;24.95;;
29370;SDS011;16357;52.188;7.838;2023-01-29T06:24:06;43.58;;;23.90;;
29370;SDS011;16357;52.188;7.838;2023-01-29T06:26:33;39.53;;;23.90;;
29370;SDS011;16357;52.188;7.838;2023-01-29T06:29:00;42.58;;;25.80;;
29370;SDS011;16357;52.188;7.838;2023-01-29T06:31:26;40.95;;;23.58;;
29370;SDS011;16357;52.188;7.838;2023-01-29T06:34:04;42.13;;;24.13;;
29370;SDS011;16357;52.188;7.838;2023-01-29T06:36:30;41.45;;;24.25;;
29370;SDS011;16357;52.188;7.838;2023-01-29T06:38:57;43.10;;;24.73;;
29370;SDS011;16357;52.188;7.838;2023-01-29T06:41:23;41.95;;;24.88;;
29370;SDS011;16357;52.188;7.838;2023-01-29T06:43:51;39.42;;;22.80;;
29370;SDS011;16357;52.188;7.838;2023-01-29T06:46:17;44.65;;;24.30;;
29370;SDS011;16357;52.188;7.838;2023-01-29T06:48:43;39.22;;;22.92;;
29370;SDS011;16357;52.188;7.838;2023-01-29T06:51:10;43.10;;;23.27;;
29370;SDS011;16357;52.188;7.838;2023-01-29T06:53:37;42.35;;;25.00;;
29370;SDS011;16357;52.188;7.838;2023-01-29T06:56:04;42.72;;;23.52;;
29370;SDS011;16357;52.188;7.838;2023-01-29T06:58:31;42.75;;;23.60;;
29370;SDS011;16357;52.188;7.838;2023-01-29T07:01:16;42.97;;;23.48;;
29370;SDS011;16357;52.188;7.838;2023-01-29T07:04:01;42.58;;;24.15;;
29370;SDS011;16357;52.188;7.838;2023-01-29T07:06:28;41.80;;;24.20;;
29370;SDS011;16357;52.188;7.838;2023-01-29T07:08:54;41.53;;;24.02;;
29370;SDS011;16357;52.188;7.838;2023-01-29T07:11:21;39.88;;;23.10;;
29370;SDS011;16357;52.188;7.838;2023-01-29T07:13:48;39.45;;;23.05;;
29370;SDS011;16357;52.188;7.838;2023-01-29T07:16:14;40.65;;;23.20;;
29370;SDS011;16357;52.188;7.838;2023-01-29T07:18:41;41.28;;;23.50;;
29370;SDS011;16357;52.188;7.838;2023-01-29T07:21:07;41.92;;;24.00;;
29370;SDS011;16357;52.188;7.838;2023-01-29T07:23:33;42.63;;;24.38;;
29370;SDS011;16357;52.188;7.838;2023-01-29T07:26:04;42.30;;;24.00;;
29370;SDS011;16357;52.188;7.838;2023-01-29T07:28:39;44.25;;;24.50;;
29370;SDS011;16357;52.188;7.838;2023-01-29T07:31:06;42.88;;;24.40;;
29370;SDS011;16357;52.188;7.838;2023-01-29T07:33:33;47.65;;;24.25;;
29370;SDS011;16357;52.188;7.838;2023-01-29T07:35:59;39.85;;;22.75;;
29370;SDS011;16357;52.188;7.838;2023-01-29T07:38:26;42.15;;;23.55;;
29370;SDS011;16357;52.188;7.838;2023-01-29T07:40:52;41.95;;;24.75;;
29370;SDS011;16357;52.188;7.838;2023-01-29T07:43:19;39.67;;;23.38;;
29370;SDS011;16357;52.188;7.838;2023-01-29T07:45:46;43.88;;;25.08;;
29370;SDS011;16357;52.188;7.838;2023-01-29T07:48:12;39.95;;;23.58;;
29370;SDS011;16357;52.188;7.838;2023-01-29T07:50:39;41.97;;;24.73;;
29370;SDS011;16357;52.188;7.838;2023-01-29T07:53:06;43.50;;;24.98;;
29370;SDS011;16357;52.188;7.838;2023-01-29T07:55:37;44.20;;;24.98;;
29370;SDS011;16357;52.188;7.838;2023-01-29T07:58:03;43.70;;;24.98;;
29370;SDS011;16357;52.188;7.838;2023-01-29T08:00:30;40.70;;;23.58;;
29370;SDS011;16357;52.188;7.838;2023-01-29T08:03:06;44.55;;;23.83;;
29370;SDS011;16357;52.188;7.838;2023-01-29T08:05:37;44.20;;;25.35;;
29370;SDS011;16357;52.188;7.838;2023-01-29T08:08:03;40.22;;;23.00;;
29370;SDS011;16357;52.188;7.838;2023-01-29T08:10:36;39.33;;;22.48;;
29370;SDS011;16357;52.188;7.838;2023-01-29T08:13:03;42.33;;;23.30;;
29370;SDS011;16357;52.188;7.838;2023-01-29T08:15:31;40.03;;;23.48;;
29370;SDS011;16357;52.188;7.838;2023-01-29T08:17:58;39.60;;;23.15;;
29370;SDS011;16357;52.188;7.838;2023-01-29T08:20:26;40.80;;;23.08;;
29370;SDS011;16357;52.188;7.838;2023-01-29T08:23:03;39.95;;;22.77;;
29370;SDS011;16357;52.188;7.838;2023-01-29T08:25:31;40.00;;;22.95;;
29370;SDS011;16357;52.188;7.838;2023-01-29T08:27:58;39.00;;;22.95;;
29370;SDS011;16357;52.188;7.838;2023-01-29T08:30:27;38.13;;;22.95;;
29370;SDS011;16357;52.188;7.838;2023-01-29T08:32:55;37.28;;;21.63;;
29370;SDS011;16357;52.188;7.838;2023-01-29T08:35:22;41.47;;;23.25;;
29370;SDS011;16357;52.188;7.838;2023-01-29T08:37:55;40.65;;;21.85;;
29370;SDS011;16357;52.188;7.838;2023-01-29T08:40:24;35.58;;;21.42;;
29370;SDS011;16357;52.188;7.838;2023-01-29T08:42:56;39.28;;;22.30;;
29370;SDS011;16357;52.188;7.838;2023-01-29T08:45:26;38.75;;;22.20;;
29370;SDS011;16357;52.188;7.838;2023-01-29T08:47:53;38.65;;;21.67;;
29370;SDS011;16357;52.188;7.838;2023-01-29T08:50:19;40.88;;;22.38;;
29370;SDS011;16357;52.188;7.838;2023-01-29T08:52:45;36.03;;;21.13;;
29370;SDS011;16357;52.188;7.838;2023-01-29T08:55:12;37.65;;;21.50;;
29370;SDS011;16357;52.188;7.838;2023-01-29T08:57:39;34.03;;;20.70;;
29370;SDS011;16357;52.188;7.838;2023-01-29T09:00:06;38.47;;;21.90;;
29370;SDS011;16357;52.188;7.838;2023-01-29T09:02:35;35.08;;;20.40;;
29370;SDS011;16357;52.188;7.838;2023-01-29T09:05:02;36.25;;;21.48;;
29370;SDS011;16357;52.188;7.838;2023-01-29T09:07:29;34.72;;;21.23;;
29370;SDS011;16357;52.188;7.838;2023-01-29T09:09:55;37.22;;;21.83;;
29370;SDS011;16357;52.188;7.838;2023-01-29T09:12:21;36.55;;;20.98;;
29370;SDS011;16357;52.188;7.838;2023-01-29T09:14:48;33.22;;;19.67;;
29370;SDS011;16357;52.188;7.838;2023-01-29T09:17:14;34.80;;;20.73;;
29370;SDS011;16357;52.188;7.838;2023-01-29T09:19:40;38.17;;;22.17;;
29370;SDS011;16357;52.188;7.838;2023-01-29T09:22:07;36.65;;;21.42;;
29370;SDS011;16357;52.188;7.838;2023-01-29T09:24:36;31.88;;;19.40;;
29370;SDS011;16357;52.188;7.838;2023-01-29T09:27:02;33.55;;;20.70;;
29370;SDS011;16357;52.188;7.838;2023-01-29T09:29:30;33.65;;;20.20;;
29370;SDS011;16357;52.188;7.838;2023-01-29T09:31:58;34.97;;;20.55;;
29370;SDS011;16357;52.188;7.838;2023-01-29T09:34:25;36.55;;;21.52;;
29370;SDS011;16357;52.188;7.838;2023-01-29T09:36:51;34.72;;;20.55;;
29370;SDS011;16357;52.188;7.838;2023-01-29T09:39:17;33.92;;;20.50;;
29370;SDS011;16357;52.188;7.838;2023-01-29T09:47:27;33.50;;;18.80;;
29370;SDS011;16357;52.188;7.838;2023-01-29T09:49:58;37.20;;;21.05;;
29370;SDS011;16357;52.188;7.838;2023-01-29T09:52:32;32.70;;;19.55;;
29370;SDS011;16357;52.188;7.838;2023-01-29T09:57:57;32.28;;;18.98;;
29370;SDS011;16357;52.188;7.838;2023-01-29T10:03:04;35.90;;;18.88;;
29370;SDS011;16357;52.188;7.838;2023-01-29T10:11:49;33.85;;;19.77;;
29370;SDS011;16357;52.188;7.838;2023-01-29T10:25:43;35.70;;;20.50;;
29370;SDS011;16357;52.188;7.838;2023-01-29T10:30:56;33.63;;;19.52;;
29370;SDS011;16357;52.188;7.838;2023-01-29T10:33:48;36.28;;;20.27;;
29370;SDS011;16357;52.188;7.838;2023-01-29T10:36:31;32.45;;;19.23;;
29370;SDS011;16357;52.188;7.838;2023-01-29T10:39:01;34.10;;;19.92;;
29370;SDS011;16357;52.188;7.838;2023-01-29T10:41:33;34.70;;;20.98;;
29370;SDS011;16357;52.188;7.838;2023-01-29T10:44:36;38.28;;;20.75;;
29370;SDS011;16357;52.188;7.838;2023-01-29T10:47:07;30.90;;;18.77;;
29370;SDS011;16357;52.188;7.838;2023-01-29T10:52:34;37.00;;;21.45;;
29370;SDS011;16357;52.188;7.838;2023-01-29T10:58:08;34.05;;;19.98;;
29370;SDS011;16357;52.188;7.838;2023-01-29T11:00:40;34.85;;;19.38;;
29370;SDS011;16357;52.188;7.838;2023-01-29T11:03:49;36.88;;;20.80;;
29370;SDS011;16357;52.188;7.838;2023-01-29T11:06:16;34.78;;;20.95;;
29370;SDS011;16357;52.188;7.838;2023-01-29T11:08:51;32.72;;;20.08;;
29370;SDS011;16357;52.188;7.838;2023-01-29T11:11:21;34.42;;;20.00;;
29370;SDS011;16357;52.188;7.838;2023-01-29T11:13:59;35.58;;;21.08;;
29370;SDS011;16357;52.188;7.838;2023-01-29T11:16:39;37.33;;;20.35;;
29370;SDS011;16357;52.188;7.838;2023-01-29T11:19:07;36.53;;;21.67;;
29370;SDS011;16357;52.188;7.838;2023-01-29T11:21:49;34.83;;;21.05;;
29370;SDS011;16357;52.188;7.838;2023-01-29T11:24:24;37.28;;;21.17;;
29370;SDS011;16357;52.188;7.838;2023-01-29T11:26:53;35.47;;;21.67;;
29370;SDS011;16357;52.188;7.838;2023-01-29T11:29:32;36.70;;;21.42;;
29370;SDS011;16357;52.188;7.838;2023-01-29T11:32:04;35.03;;;20.92;;
29370;SDS011;16357;52.188;7.838;2023-01-29T11:34:33;36.40;;;21.15;;
29370;SDS011;16357;52.188;7.838;2023-01-29T11:37:00;33.75;;;21.00;;
29370;SDS011;16357;52.188;7.838;2023-01-29T11:39:43;36.92;;;21.77;;
29370;SDS011;16357;52.188;7.838;2023-01-29T11:42:19;34.53;;;20.88;;
29370;SDS011;16357;52.188;7.838;2023-01-29T11:44:47;36.15;;;21.73;;
29370;SDS011;16357;52.188;7.838;2023-01-29T11:55:10;33.28;;;19.63;;
29370;SDS011;16357;52.188;7.838;2023-01-29T11:57:42;41.53;;;21.42;;
29370;SDS011;16357;52.188;7.838;2023-01-29T12:00:18;35.67;;;21.00;;
29370;SDS011;16357;52.188;7.838;2023-01-29T12:02:52;34.50;;;20.95;;
29370;SDS011;16357;52.188;7.838;2023-01-29T12:05:23;31.95;;;19.67;;
29370;SDS011;16357;52.188;7.838;2023-01-29T12:07:57;38.28;;;21.60;;
29370;SDS011;16357;52.188;7.838;2023-01-29T12:10:33;37.35;;;22.77;;
29370;SDS011;16357;52.188;7.838;2023-01-29T12:13:05;34.78;;;21.20;;
29370;SDS011;16357;52.188;7.838;2023-01-29T12:15:45;36.38;;;20.10;;
29370;SDS011;16357;52.188;7.838;2023-01-29T12:18:24;37.60;;;21.75;;
29370;SDS011;16357;52.188;7.838;2023-01-29T12:21:02;40.88;;;22.63;;
29370;SDS011;16357;52.188;7.838;2023-01-29T12:26:43;34.20;;;20.45;;
29370;SDS011;16357;52.188;7.838;2023-01-29T12:34:44;39.20;;;22.25;;
29370;SDS011;16357;52.188;7.838;2023-01-29T12:37:32;38.83;;;21.50;;
29370;SDS011;16357;52.188;7.838;2023-01-29T12:40:11;37.28;;;21.00;;
29370;SDS011;16357;52.188;7.838;2023-01-29T12:42:39;36.20;;;21.17;;
29370;SDS011;16357;52.188;7.838;2023-01-29T12:45:11;37.58;;;21.73;;
29370;SDS011;16357;52.188;7.838;2023-01-29T12:47:48;37.38;;;21.52;;
29370;SDS011;16357;52.188;7.838;2023-01-29T12:50:21;37.72;;;20.83;;
29370;SDS011;16357;52.188;7.838;2023-01-29T12:52:54;36.55;;;21.13;;
29370;SDS011;16357;52.188;7.838;2023-01-29T12:55:24;37.05;;;22.15;;
29370;SDS011;16357;52.188;7.838;2023-01-29T12:58:04;36.88;;;21.60;;
29370;SDS011;16357;52.188;7.838;2023-01-29T13:00:38;35.08;;;20.25;;
29370;SDS011;16357;52.188;7.838;2023-01-29T13:05:44;37.10;;;21.45;;
29370;SDS011;16357;52.188;7.838;2023-01-29T13:08:21;31.73;;;19.58;;
29370;SDS011;16357;52.188;7.838;2023-01-29T13:10:54;38.03;;;21.25;;
29370;SDS011;16357;52.188;7.838;2023-01-29T13:13:30;38.17;;;20.83;;
29370;SDS011;16357;52.188;7.838;2023-01-29T13:16:02;39.33;;;21.60;;
29370;SDS011;16357;52.188;7.838;2023-01-29T13:18:38;37.08;;;20.98;;
29370;SDS011;16357;52.188;7.838;2023-01-29T13:21:05;35.75;;;20.65;;
29370;SDS011;16357;52.188;7.838;2023-01-29T13:23:41;33.72;;;20.40;;
29370;SDS011;16357;52.188;7.838;2023-01-29T13:26:12;37.05;;;21.08;;
29370;SDS011;16357;52.188;7.838;2023-01-29T13:28:44;37.85;;;21.30;;
29370;SDS011;16357;52.188;7.838;2023-01-29T13:34:11;37.88;;;20.58;;
29370;SDS011;16357;52.188;7.838;2023-01-29T13:36:53;36.83;;;20.92;;
29370;SDS011;16357;52.188;7.838;2023-01-29T13:39:23;35.92;;;20.77;;
29370;SDS011;16357;52.188;7.838;2023-01-29T13:41:54;35.83;;;21.55;;
29370;SDS011;16357;52.188;7.838;2023-01-29T13:47:09;36.13;;;21.23;;
29370;SDS011;16357;52.188;7.838;2023-01-29T13:50:09;35.95;;;21.35;;
29370;SDS011;16357;52.188;7.838;2023-01-29T13:52:54;41.80;;;21.60;;
29370;SDS011;16357;52.188;7.838;2023-01-29T13:55:22;37.58;;;21.05;;
29370;SDS011;16357;52.188;7.838;2023-01-29T13:57:59;35.67;;;20.83;;
29370;SDS011;16357;52.188;7.838;2023-01-29T14:00:47;35.28;;;20.35;;
29370;SDS011;16357;52.188;7.838;2023-01-29T14:05:59;35.17;;;20.75;;
29370;SDS011;16357;52.188;7.838;2023-01-29T14:13:38;38.40;;;21.30;;
29370;SDS011;16357;52.188;7.838;2023-01-29T14:16:26;39.35;;;21.95;;
29370;SDS011;16357;52.188;7.838;2023-01-29T14:18:57;40.33;;;21.83;;
29370;SDS011;16357;52.188;7.838;2023-01-29T14:21:28;42.20;;;23.27;;
29370;SDS011;16357;52.188;7.838;2023-01-29T14:23:58;40.50;;;21.65;;
29370;SDS011;16357;52.188;7.838;2023-01-29T14:42:37;44.75;;;23.20;;
29370;SDS011;16357;52.188;7.838;2023-01-29T14:55:36;39.72;;;22.55;;
29370;SDS011;16357;52.188;7.838;2023-01-29T14:58:13;39.90;;;23.98;;
29370;SDS011;16357;52.188;7.838;2023-01-29T15:00:44;42.70;;;23.02;;
29370;SDS011;16357;52.188;7.838;2023-01-29T15:03:19;46.40;;;22.80;;
29370;SDS011;16357;52.188;7.838;2023-01-29T15:05:53;43.13;;;23.77;;
29370;SDS011;16357;52.188;7.838;2023-01-29T15:11:05;43.42;;;23.65;;
29370;SDS011;16357;52.188;7.838;2023-01-29T15:22:10;42.88;;;23.98;;
29370;SDS011;16357;52.188;7.838;2023-01-29T15:24:38;45.80;;;25.52;;
29370;SDS011;16357;52.188;7.838;2023-01-29T15:27:10;44.47;;;24.95;;
29370;SDS011;16357;52.188;7.838;2023-01-29T15:29:39;43.08;;;23.75;;
29370;SDS011;16357;52.188;7.838;2023-01-29T15:32:11;43.80;;;24.92;;
29370;SDS011;16357;52.188;7.838;2023-01-29T15:34:42;43.95;;;25.42;;
29370;SDS011;16357;52.188;7.838;2023-01-29T15:39:55;45.78;;;26.20;;
29370;SDS011;16357;52.188;7.838;2023-01-29T15:42:22;46.15;;;26.10;;
29370;SDS011;16357;52.188;7.838;2023-01-29T15:44:51;48.00;;;26.10;;
29370;SDS011;16357;52.188;7.838;2023-01-29T15:47:22;44.90;;;25.48;;
29370;SDS011;16357;52.188;7.838;2023-01-29T15:49:56;47.45;;;26.77;;
29370;SDS011;16357;52.188;7.838;2023-01-29T15:52:25;48.50;;;26.27;;
29370;SDS011;16357;52.188;7.838;2023-01-29T15:54:54;48.80;;;26.67;;
29370;SDS011;16357;52.188;7.838;2023-01-29T15:57:29;48.65;;;26.73;;
29370;SDS011;16357;52.188;7.838;2023-01-29T16:00:03;44.72;;;24.75;;
29370;SDS011;16357;52.188;7.838;2023-01-29T16:05:00;44.08;;;25.38;;
29370;SDS011;16357;52.188;7.838;2023-01-29T16:07:27;46.70;;;27.42;;
29370;SDS011;16357;52.188;7.838;2023-01-29T16:09:55;48.28;;;26.00;;
29370;SDS011;16357;52.188;7.838;2023-01-29T16:12:22;44.28;;;25.77;;
29370;SDS011;16357;52.188;7.838;2023-01-29T16:14:49;43.60;;;25.60;;
29370;SDS011;16357;52.188;7.838;2023-01-29T16:17:23;47.35;;;26.63;;
29370;SDS011;16357;52.188;7.838;2023-01-29T16:20:04;46.75;;;26.35;;
29370;SDS011;16357;52.188;7.838;2023-01-29T16:22:33;46.38;;;26.33;;
29370;SDS011;16357;52.188;7.838;2023-01-29T16:25:10;44.92;;;25.73;;
29370;SDS011;16357;52.188;7.838;2023-01-29T16:27:39;48.47;;;26.85;;
29370;SDS011;16357;52.188;7.838;2023-01-29T16:30:09;46.30;;;25.75;;
29370;SDS011;16357;52.188;7.838;2023-01-29T16:32:41;47.75;;;26.67;;
29370;SDS011;16357;52.188;7.838;2023-01-29T16:35:11;54.63;;;28.60;;
29370;SDS011;16357;52.188;7.838;2023-01-29T16:37:41;46.65;;;26.75;;
29370;SDS011;16357;52.188;7.838;2023-01-29T16:40:15;48.58;;;27.02;;
29370;SDS011;16357;52.188;7.838;2023-01-29T16:46:14;46.65;;;27.35;;
29370;SDS011;16357;52.188;7.838;2023-01-29T16:48:45;51.05;;;28.77;;
29370;SDS011;16357;52.188;7.838;2023-01-29T16:51:14;47.22;;;27.45;;
29370;SDS011;16357;52.188;7.838;2023-01-29T16:53:57;47.42;;;27.45;;
29370;SDS011;16357;52.188;7.838;2023-01-29T16:56:27;48.45;;;27.63;;
29370;SDS011;16357;52.188;7.838;2023-01-29T16:58:56;51.17;;;28.52;;
29370;SDS011;16357;52.188;7.838;2023-01-29T17:01:23;45.80;;;27.50;;
29370;SDS011;16357;52.188;7.838;2023-01-29T17:04:02;47.50;;;27.27;;
29370;SDS011;16357;52.188;7.838;2023-01-29T17:06:32;47.63;;;27.48;;
29370;SDS011;16357;52.188;7.838;2023-01-29T17:09:00;50.58;;;28.05;;
29370;SDS011;16357;52.188;7.838;2023-01-29T17:11:35;46.03;;;27.02;;
29370;SDS011;16357;52.188;7.838;2023-01-29T17:14:04;49.80;;;28.67;;
29370;SDS011;16357;52.188;7.838;2023-01-29T17:16:36;47.78;;;27.95;;
29370;SDS011;16357;52.188;7.838;2023-01-29T17:19:16;46.97;;;26.73;;
29370;SDS011;16357;52.188;7.838;2023-01-29T17:21:46;46.67;;;26.20;;
29370;SDS011;16357;52.188;7.838;2023-01-29T17:24:12;48.28;;;29.27;;
29370;SDS011;16357;52.188;7.838;2023-01-29T17:26:39;47.13;;;26.85;;